Latest Weather Observations for Mildura

IDN60801

Issued at 4:03 am EST Monday 25 July 2016 (issued every 30 minutes, with the page automatically refreshed every 10 minutes)

About weather observations | Map of weather stations | Latest weather observations for NSW | Other Formats
Station Details ID: 076031 Name: MILDURA AIRPORT Lat: -34.24 Lon: 142.09 Height: 50.0 m
Data from the previous 72 hours. | See also: Recent months at Mildura
Date/Time
EST
Temp
°C
App
Temp
°C
Dew
Point
°C
Rel
Hum
%
Delta-T
°C
Wind Press
QNH
hPa
Press
MSL
hPa
Rain since
9am
mm
Dir  Spd
km/h
Gust
km/h
Spd
kts
Gust
kts
25/04:00am 8.2 3.9 5.1 81 1.4 W 17 28 9 15 1013.6 1013.7 2.0
25/03:30am 8.5 3.6 5.1 79 1.5 W 20 30 11 16 1013.5 1013.6 2.0
25/03:00am 8.4 3.4 4.6 77 1.7 WNW 20 28 11 15 1013.4 1013.5 2.0
25/02:30am 8.7 3.8 4.9 77 1.7 WNW 20 32 11 17 1013.3 1013.4 2.0
25/02:00am 9.0 3.3 4.8 75 1.9 WNW 24 37 13 20 1013.1 1013.2 2.0
25/01:30am 9.4 3.7 4.8 73 2.1 WNW 24 35 13 19 1012.8 1012.9 2.0
25/01:00am 10.0 3.9 5.0 71 2.3 WNW 26 39 14 21 1012.5 1012.6 2.0
25/12:30am 10.0 3.9 5.0 71 2.3 WNW 26 39 14 21 1012.3 1012.4 2.0
25/12:00am 10.0 3.5 4.8 70 2.3 WNW 28 43 15 23 1012.3 1012.4 2.0
 
Date/Time
EST
Temp
°C
App
Temp
°C
Dew
Point
°C
Rel
Hum
%
Delta-T
°C
Wind Press
QNH
hPa
Press
MSL
hPa
Rain since
9am
mm
Dir  Spd
km/h
Gust
km/h
Spd
kts
Gust
kts
24/11:30pm 10.1 4.0 4.7 69 2.4 WNW 26 39 14 21 1012.3 1012.4 2.0
24/11:00pm 10.1 3.6 4.9 70 2.3 WNW 28 43 15 23 1011.9 1012.0 2.0
24/10:30pm 10.0 4.2 4.4 68 2.5 WNW 24 39 13 21 1011.8 1011.9 2.0
24/10:00pm 9.9 4.0 4.1 67 2.6 NW 24 35 13 19 1011.7 1011.8 2.0
24/09:30pm 9.8 3.8 3.5 65 2.7 NW 24 32 13 17 1011.5 1011.6 2.0
24/09:00pm 9.8 4.3 3.8 66 2.6 NW 22 32 12 17 1011.4 1011.5 2.0
24/08:30pm 8.5 4.8 4.3 75 1.8 NW 13 20 7 11 1011.5 1011.6 2.0
24/08:00pm 8.5 4.7 3.9 73 2.0 NNW 13 19 7 10 1011.1 1011.2 2.0
24/07:30pm 8.6 4.4 3.8 72 2.1 NW 15 20 8 11 1011.1 1011.2 2.0
24/07:00pm 8.2 4.8 4.2 76 1.7 NW 11 15 6 8 1010.8 1010.9 2.0
24/06:30pm 9.0 5.2 3.8 70 2.3 WNW 13 19 7 10 1010.5 1010.6 2.0
24/06:00pm 9.7 4.8 3.9 67 2.6 WNW 19 28 10 15 1010.1 1010.2 2.0
24/05:33pm 10.6 4.1 4.9 68 2.6 WNW 28 46 15 25 1010.0 1010.1 2.0
24/05:30pm 10.7 3.6 5.3 69 2.5 WNW 32 46 17 25 1010.0 1010.1 2.0
24/05:25pm 10.8 4.3 4.9 67 2.7 WNW 28 46 15 25 1009.9 1010.0 2.0
24/05:00pm 11.7 6.4 5.1 64 3.0 WNW 22 33 12 18 1009.3 1009.4 2.0
24/04:35pm 11.7 5.2 4.7 62 3.2 WNW 28 50 15 27 1009.2 1009.3 2.0
24/04:30pm 11.9 5.5 5.3 64 3.1 WNW 28 41 15 22 1009.1 1009.2 2.0
24/04:00pm 11.5 6.3 7.4 76 2.0 WNW 24 39 13 21 1009.0 1009.1 2.0
24/03:30pm 10.5 5.4 7.6 82 1.4 WNW 24 33 13 18 1008.8 1008.9 2.0
24/03:00pm 11.2 7.1 8.6 84 1.3 NW 20 32 11 17 1008.9 1009.0 1.8
24/02:50pm 11.2 7.5 9.5 89 0.9 NW 19 28 10 15 1008.9 1009.0 1.8
24/02:39pm 10.1 5.6 8.4 89 0.8 NW 22 32 12 17 1009.0 1009.1 1.8
24/02:30pm 9.9 3.7 7.8 87 1.0 WNW 30 54 16 29 1009.2 1009.3 1.4
24/02:17pm 12.4 5.9 4.9 60 3.5 NW 28 46 15 25 1008.7 1008.8 1.0
24/02:00pm 13.2 7.1 4.6 56 4.0 NNW 26 46 14 25 1008.5 1008.6 1.0
24/01:55pm 13.2 6.7 4.6 56 4.0 NNW 28 46 15 25 1008.5 1008.6 1.0
24/01:35pm 13.1 7.2 6.0 62 3.4 NW 26 44 14 24 1009.0 1009.1 1.0
24/01:30pm 11.9 6.6 7.0 72 2.4 NW 24 37 13 20 1009.2 1009.3 1.0
24/01:22pm 10.1 3.3 7.0 81 1.5 WNW 32 54 17 29 1009.6 1009.7 1.0
24/01:16pm 10.4 3.2 6.0 74 2.0 NW 33 54 18 29 1009.9 1010.0 0.6
24/01:13pm 11.6 4.6 6.1 69 2.6 NW 32 54 17 29 1009.9 1010.0 0.2
24/01:00pm 13.7 6.5 3.2 49 4.7 NNW 30 43 16 23 1009.5 1009.6 0.0
24/12:30pm 14.0 7.0 4.0 51 4.6 NNW 30 48 16 26 1010.0 1010.1 0.0
24/12:25pm 13.9 7.3 4.2 52 4.5 NNW 28 48 15 26 1010.1 1010.2 0.0
24/12:00pm 13.6 7.7 3.7 51 4.5 NNW 24 44 13 24 1010.6 1010.7 0.0
24/11:30am 12.8 6.9 3.7 54 4.1 NNW 24 39 13 21 1011.5 1011.6 0.0
24/11:00am 12.8 7.8 4.8 58 3.7 NNW 20 33 11 18 1012.0 1012.1 0.0
24/10:30am 11.9 7.1 5.5 65 3.0 NNW 20 30 11 16 1012.3 1012.4 0.0
24/10:00am 10.5 6.0 6.1 74 2.0 N 19 26 10 14 1012.4 1012.5 0.0
24/09:30am 9.4 5.1 7.2 86 1.0 N 19 24 10 13 1012.4 1012.5 0.0
24/09:00am 8.0 4.1 6.9 93 0.5 N 17 20 9 11 1012.8 1012.9 0.8
24/08:30am 6.5 2.4 6.4 99 0.0 NNE 17 20 9 11 1013.1 1013.2 0.8
24/08:00am 5.2 1.2 5.1 99 0.0 NNE 15 19 8 10 1013.3 1013.4 0.8
24/07:30am 4.1 0.3 4.0 99 0.0 N 13 15 7 8 1013.3 1013.4 0.8
24/07:00am 3.4 -0.6 3.1 98 0.1 NNE 13 13 7 7 1013.2 1013.3 0.8
24/06:30am 4.4 1.4 4.1 98 0.1 N 9 13 5 7 1013.3 1013.4 0.8
24/06:00am 4.9 2.0 4.5 97 0.2 N 9 11 5 6 1013.2 1013.3 0.8
24/05:30am 4.4 1.7 3.8 96 0.3 NNE 7 11 4 6 1013.2 1013.3 0.8
24/05:00am 5.1 1.7 4.2 94 0.4 N 11 13 6 7 1013.1 1013.2 0.8
24/04:30am 6.1 2.9 4.9 92 0.5 N 11 13 6 7 1013.6 1013.7 0.8
24/04:00am 5.8 3.3 4.9 94 0.4 N 7 9 4 5 1013.9 1014.0 0.8
24/03:30am 6.1 3.6 4.7 91 0.6 NNE 7 9 4 5 1014.1 1014.2 0.8
24/03:00am 7.4 4.7 5.5 88 0.8 N 9 11 5 6 1014.7 1014.8 0.8
24/02:30am 7.4 5.1 5.7 89 0.8 NNE 7 9 4 5 1014.9 1015.0 0.8
24/02:00am 7.9 4.8 5.5 85 1.1 N 11 13 6 7 1015.4 1015.5 0.8
24/01:30am 7.9 4.4 5.5 85 1.1 N 13 17 7 9 1015.4 1015.5 0.8
24/01:00am 7.8 5.0 5.1 83 1.2 NNW 9 13 5 7 1015.6 1015.7 0.6
24/12:30am 6.9 4.4 4.7 86 1.0 N 7 9 4 5 1015.7 1015.8 0.6
24/12:00am 8.3 6.1 5.1 80 1.4 N 6 9 3 5 1015.8 1015.9 0.6
 
Date/Time
EST
Temp
°C
App
Temp
°C
Dew
Point
°C
Rel
Hum
%
Delta-T
°C
Wind Press
QNH
hPa
Press
MSL
hPa
Rain since
9am
mm
Dir  Spd
km/h
Gust
km/h
Spd
kts
Gust
kts
23/11:30pm 7.8 6.8 5.4 85 1.1 CALM 0 0 0 0 1015.8 1015.9 0.6
23/11:00pm 8.1 5.7 5.4 83 1.2 N 7 9 4 5 1016.0 1016.1 0.6
23/10:30pm 7.9 6.9 5.5 85 1.1 CALM 0 0 0 0 1016.0 1016.1 0.6
23/10:00pm 8.2 7.0 4.8 79 1.5 CALM 0 6 0 3 1016.0 1016.1 0.6
23/09:30pm 7.7 6.2 5.0 83 1.2 NNW 2 6 1 3 1016.0 1016.1 0.6
23/09:00pm 7.7 6.2 5.2 84 1.1 NW 2 6 1 3 1016.1 1016.2 0.6
23/08:30pm 7.9 5.4 4.7 80 1.4 WNW 7 7 4 4 1016.0 1016.1 0.6
23/08:00pm 6.4 3.9 3.9 84 1.1 NW 6 7 3 4 1015.8 1015.9 0.6
23/07:30pm 6.2 4.8 3.7 84 1.1 CALM 0 0 0 0 1015.5 1015.6 0.6
23/07:00pm 7.3 6.0 3.9 79 1.5 CALM 0 0 0 0 1015.1 1015.2 0.6
23/06:30pm 8.6 6.1 4.0 73 2.0 WSW 6 9 3 5 1015.1 1015.2 0.6
23/06:00pm 9.8 6.9 4.4 69 2.4 SW 9 11 5 6 1015.1 1015.2 0.6
23/05:30pm 10.8 7.6 4.9 67 2.7 SW 11 15 6 8 1015.0 1015.1 0.6
23/05:00pm 10.7 6.6 4.4 65 2.8 SSW 15 20 8 11 1015.1 1015.2 0.6
23/04:30pm 13.1 9.3 3.7 53 4.2 WSW 13 24 7 13 1014.6 1014.7 0.6
23/04:00pm 12.5 8.1 4.5 58 3.7 W 17 24 9 13 1014.6 1014.7 0.6
23/03:30pm 12.3 8.6 4.5 59 3.6 WSW 13 20 7 11 1014.6 1014.7 0.6
23/03:10pm 12.1 9.1 6.2 67 2.8 SW 11 17 6 9 1014.4 1014.5 0.6
23/03:00pm 11.4 7.7 8.1 80 1.6 SW 17 32 9 17 1014.4 1014.5 0.6
23/02:56pm 10.9 6.7 7.6 80 1.6 SW 19 32 10 17 1014.4 1014.5 0.6
23/02:30pm 11.3 8.7 6.2 71 2.4 SW 9 17 5 9 1014.1 1014.2 0.4
23/02:00pm 13.3 9.0 3.4 51 4.4 SW 15 20 8 11 1013.8 1013.9 0.2
23/01:30pm 12.7 7.6 3.1 52 4.3 WSW 19 26 10 14 1013.9 1014.0 0.2
23/01:00pm 12.2 8.0 5.8 65 3.0 WSW 17 24 9 13 1014.0 1014.1 0.2
23/12:40pm 10.6 7.5 7.3 80 1.6 WSW 13 20 7 11 1014.4 1014.5 0.2
23/12:30pm 10.0 6.1 6.9 81 1.5 SW 17 28 9 15 1014.5 1014.6 0.2
23/12:29pm 10.0 6.1 7.1 82 1.4 SSW 17 28 9 15 1014.5 1014.6 0.2
23/12:13pm 11.9 8.6 6.6 70 2.5 S 13 19 7 10 1014.3 1014.4 0.0
23/12:03pm 10.8 7.6 6.9 77 1.9 SW 13 24 7 13 1014.4 1014.5 0.0
23/12:00pm 11.1 7.8 6.6 74 2.1 WSW 13 26 7 14 1014.5 1014.6 0.0
23/11:30am 11.8 7.0 4.8 62 3.2 SW 19 30 10 16 1014.5 1014.6 0.0
23/11:00am 12.1 8.0 6.2 67 2.8 W 17 26 9 14 1014.4 1014.5 0.0
23/10:30am 11.4 7.2 5.7 68 2.6 WSW 17 30 9 16 1014.3 1014.4 0.0
23/10:00am 10.9 6.8 6.3 73 2.2 W 17 28 9 15 1013.8 1013.9 0.0
23/09:30am 10.0 5.9 6.0 76 1.8 W 17 28 9 15 1013.4 1013.5 0.0
23/09:00am 9.5 5.3 5.9 78 1.7 W 17 24 9 13 1012.9 1013.0 0.0
23/08:30am 8.2 4.3 5.3 82 1.3 W 15 24 8 13 1012.3 1012.4 0.0
23/08:00am 7.9 4.3 5.2 83 1.2 W 13 20 7 11 1011.9 1012.0 0.0
23/07:30am 8.0 3.7 5.1 82 1.3 WSW 17 24 9 13 1011.2 1011.3 0.0
23/07:00am 8.2 3.5 5.1 81 1.4 W 19 28 10 15 1010.6 1010.7 0.0
23/06:30am 8.2 3.8 5.0 80 1.4 W 17 24 9 13 1010.2 1010.3 0.0
23/06:00am 8.7 3.8 5.1 78 1.6 W 20 33 11 18 1009.7 1009.8 0.0
23/05:30am 8.9 3.6 5.1 77 1.7 W 22 33 12 18 1008.9 1009.0 0.0
23/05:00am 9.9 3.4 4.9 71 2.3 W 28 43 15 23 1008.4 1008.5 0.0
23/04:40am 10.3 3.4 4.7 68 2.5 W 30 48 16 26 1008.0 1008.1 0.0
23/04:30am 10.4 3.1 4.5 67 2.6 W 32 48 17 26 1007.8 1007.9 0.0
23/04:00am 10.5 3.2 4.4 66 2.7 WNW 32 54 17 29 1007.1 1007.2 0.0
23/03:46am 10.4 3.4 4.1 65 2.8 WNW 30 48 16 26 1006.9 1007.0 0.0
23/03:30am 10.1 3.0 3.8 65 2.8 WNW 30 46 16 25 1006.7 1006.8 0.0
23/03:00am 10.1 2.7 3.8 65 2.8 WNW 32 50 17 27 1006.5 1006.6 0.0
23/02:58am 10.2 3.2 3.9 65 2.8 WNW 30 50 16 27 1006.5 1006.6 0.0
23/02:30am 10.2 3.2 4.1 66 2.7 WNW 30 43 16 23 1006.6 1006.7 0.0
23/02:11am 10.3 3.7 4.2 66 2.7 WNW 28 46 15 25 1006.4 1006.5 0.0
23/02:00am 10.2 4.3 4.1 66 2.7 WNW 24 33 13 18 1006.4 1006.5 0.0
23/01:30am 10.1 4.3 4.3 67 2.6 WNW 24 39 13 21 1006.2 1006.3 0.0
23/01:00am 10.5 4.2 4.0 64 2.9 W 26 41 14 22 1006.1 1006.2 0.0
23/12:30am 10.8 3.4 3.8 62 3.1 WNW 32 46 17 25 1006.2 1006.3 0.0
23/12:00am 11.1 4.1 4.1 62 3.1 W 30 48 16 26 1005.9 1006.0 0.0
 
Date/Time
EST
Temp
°C
App
Temp
°C
Dew
Point
°C
Rel
Hum
%
Delta-T
°C
Wind Press
QNH
hPa
Press
MSL
hPa
Rain since
9am
mm
Dir  Spd
km/h
Gust
km/h
Spd
kts
Gust
kts
22/11:56pm 11.2 4.2 4.2 62 3.1 WNW 30 48 16 26 1005.8 1005.9 0.0
22/11:30pm 11.2 5.5 4.9 65 2.9 WNW 24 37 13 20 1005.7 1005.8 0.0
22/11:00pm 11.3 4.4 4.7 64 3.0 WNW 30 43 16 23 1005.3 1005.4 0.0
22/10:30pm 12.0 4.1 4.5 60 3.4 WNW 35 57 19 31 1005.1 1005.2 0.0
22/10:00pm 12.3 5.1 5.0 61 3.4 WNW 32 54 17 29 1004.9 1005.0 0.0
22/09:37pm 12.6 6.3 5.8 63 3.2 WNW 28 50 15 27 1004.8 1004.8 0.0
22/09:30pm 12.4 6.6 6.2 66 2.9 WNW 26 37 14 20 1004.6 1004.6 0.0
22/09:00pm 12.7 6.6 6.7 67 2.9 W 28 50 15 27 1004.5 1004.5 0.0
22/08:59pm 12.7 6.6 6.7 67 2.9 W 28 50 15 27 1004.5 1004.5 0.0
22/08:30pm 12.6 6.8 7.9 73 2.3 W 28 44 15 24 1004.2 1004.2 0.0
22/08:00pm 12.4 7.7 9.1 80 1.7 W 24 35 13 19 1003.8 1003.8 0.0
22/07:30pm 12.6 7.9 9.1 79 1.8 W 24 43 13 23 1003.5 1003.5 0.0
22/07:00pm 11.9 9.0 9.6 86 1.2 W 15 26 8 14 1002.6 1002.6 0.0
22/06:30pm 12.3 6.9 9.5 83 1.4 WSW 28 41 15 22 1003.0 1003.0 0.0
22/06:17pm 13.9 8.1 8.1 68 2.9 WSW 28 52 15 28 1002.4 1002.4 0.0
22/06:00pm 17.2 10.7 4.9 44 5.9 WNW 28 37 15 20 1001.0 1001.0 0.0
22/05:30pm 17.3 11.4 5.6 46 5.7 WNW 26 43 14 23 1000.8 1000.8 0.0
22/05:00pm 17.6 11.3 5.9 46 5.8 WNW 28 39 15 21 1000.9 1000.9 0.0
22/04:30pm 17.7 14.2 7.2 50 5.3 NW 15 22 8 12 1000.9 1000.9 0.0
22/04:00pm 17.9 13.7 7.6 51 5.3 WNW 19 28 10 15 1000.9 1000.9 0.0
22/03:30pm 16.8 12.9 7.2 53 4.8 WNW 17 26 9 14 1001.1 1001.1 0.0
22/03:00pm 16.9 12.6 7.8 55 4.6 WNW 20 30 11 16 1001.5 1001.5 0.0
22/02:30pm 17.0 12.2 7.4 53 4.8 WNW 22 33 12 18 1001.4 1001.4 0.0
22/02:00pm 16.9 13.8 8.8 59 4.2 WNW 15 24 8 13 1001.8 1001.8 0.0
22/01:30pm 16.5 13.9 9.4 63 3.7 WNW 13 20 7 11 1002.2 1002.2 0.0
22/01:00pm 16.6 13.2 9.3 62 3.8 W 17 28 9 15 1003.2 1003.2 0.0
22/12:30pm 16.4 13.4 9.3 63 3.7 W 15 26 8 14 1003.5 1003.5 0.0
22/12:00pm 16.2 12.3 9.4 64 3.5 WSW 20 33 11 18 1003.9 1003.9 0.0
22/11:30am 16.9 13.7 8.6 58 4.3 W 15 20 8 11 1004.0 1004.0 0.0
22/11:00am 17.4 14.7 9.1 58 4.3 WSW 13 19 7 10 1004.7 1004.7 0.0
22/10:30am 17.8 13.8 9.2 57 4.5 W 20 33 11 18 1004.7 1004.7 0.0
22/10:00am 18.2 16.2 11.5 65 3.7 W 13 19 7 10 1003.9 1003.9 0.0
22/09:30am 18.3 18.1 14.6 79 2.1 W 9 13 5 7 1004.8 1004.8 0.0
22/09:00am 18.6 17.7 14.9 79 2.2 WNW 13 20 7 11 1004.4 1004.4 0.0
22/08:30am 18.4 17.9 14.9 80 2.0 NW 11 17 6 9 1003.9 1003.9 0.0
22/08:00am 18.3 17.8 15.0 81 1.9 NW 11 17 6 9 1004.0 1004.0 0.0
22/07:30am 18.5 16.9 15.0 80 2.0 NW 17 24 9 13 1003.9 1003.9 0.0
22/07:00am 18.7 16.1 15.0 79 2.2 NNW 22 39 12 21 1003.3 1003.3 0.0
22/06:30am 19.1 16.5 15.0 77 2.4 NNW 22 35 12 19 1002.7 1002.7 0.0
22/06:00am 18.8 15.6 15.3 80 2.1 NNW 26 41 14 22 1002.8 1002.8 0.0
22/05:30am 18.2 15.1 15.5 84 1.6 N 26 37 14 20 1003.0 1003.0 0.0
22/05:00am 18.3 15.2 15.6 84 1.6 NNW 26 37 14 20 1003.3 1003.3 0.0
22/04:30am 18.5 15.4 15.7 84 1.7 NNW 26 43 14 23 1003.8 1003.8 0.0

Other Formats:

Comma delimited format used in spreadsheet applications
http://www.bom.gov.au/fwo/IDN60801/IDN60801.94693.axf

JavaScript Object Notation format (JSON) in row-major order
http://www.bom.gov.au/fwo/IDN60801/IDN60801.94693.json